sensor_id;sensor_type;location;lat;lon;timestamp;temperature;humidity
72338;DHT22;60294;64.134;-21.862;2022-10-16T00:04:17;3.30;69.60
72338;DHT22;60294;64.134;-21.862;2022-10-16T00:09:12;3.40;68.30
72338;DHT22;60294;64.134;-21.862;2022-10-16T00:11:39;3.40;67.60
72338;DHT22;60294;64.134;-21.862;2022-10-16T00:16:36;3.40;66.70
72338;DHT22;60294;64.134;-21.862;2022-10-16T00:19:02;3.40;67.20
72338;DHT22;60294;64.134;-21.862;2022-10-16T00:21:30;3.40;68.60
72338;DHT22;60294;64.134;-21.862;2022-10-16T01:16:49;3.10;67.40
72338;DHT22;60294;64.134;-21.862;2022-10-16T01:19:37;3.30;66.10
72338;DHT22;60294;64.134;-21.862;2022-10-16T01:37:43;3.20;66.40
72338;DHT22;60294;64.134;-21.862;2022-10-16T01:45:11;3.70;62.60
72338;DHT22;60294;64.134;-21.862;2022-10-16T01:47:39;3.70;63.20
72338;DHT22;60294;64.134;-21.862;2022-10-16T01:50:07;3.40;63.90
72338;DHT22;60294;64.134;-21.862;2022-10-16T01:52:37;3.20;64.90
72338;DHT22;60294;64.134;-21.862;2022-10-16T01:57:36;3.10;65.20
72338;DHT22;60294;64.134;-21.862;2022-10-16T02:00:09;3.20;63.80
72338;DHT22;60294;64.134;-21.862;2022-10-16T02:20:13;3.00;64.00
72338;DHT22;60294;64.134;-21.862;2022-10-16T02:22:43;3.00;64.40
72338;DHT22;60294;64.134;-21.862;2022-10-16T02:25:27;3.00;64.10
72338;DHT22;60294;64.134;-21.862;2022-10-16T02:27:57;2.80;65.20
72338;DHT22;60294;64.134;-21.862;2022-10-16T02:30:42;2.70;66.50
72338;DHT22;60294;64.134;-21.862;2022-10-16T02:35:40;2.60;66.70
72338;DHT22;60294;64.134;-21.862;2022-10-16T02:38:08;2.60;67.30
72338;DHT22;60294;64.134;-21.862;2022-10-16T02:40:34;2.70;65.30
72338;DHT22;60294;64.134;-21.862;2022-10-16T02:43:03;3.00;62.70
72338;DHT22;60294;64.134;-21.862;2022-10-16T02:45:30;2.70;65.50
72338;DHT22;60294;64.134;-21.862;2022-10-16T02:47:56;2.60;66.40
72338;DHT22;60294;64.134;-21.862;2022-10-16T02:50:21;2.50;68.20
72338;DHT22;60294;64.134;-21.862;2022-10-16T02:52:48;2.60;65.70
72338;DHT22;60294;64.134;-21.862;2022-10-16T02:55:14;2.60;65.30
72338;DHT22;60294;64.134;-21.862;2022-10-16T02:57:40;2.40;67.80
72338;DHT22;60294;64.134;-21.862;2022-10-16T03:02:39;2.30;69.50
72338;DHT22;60294;64.134;-21.862;2022-10-16T03:05:05;2.30;69.20
72338;DHT22;60294;64.134;-21.862;2022-10-16T03:07:31;2.40;68.10
72338;DHT22;60294;64.134;-21.862;2022-10-16T03:09:57;2.30;69.30
72338;DHT22;60294;64.134;-21.862;2022-10-16T03:12:26;2.30;69.30
72338;DHT22;60294;64.134;-21.862;2022-10-16T03:14:52;2.20;70.00
72338;DHT22;60294;64.134;-21.862;2022-10-16T03:17:18;2.20;71.00
72338;DHT22;60294;64.134;-21.862;2022-10-16T03:22:10;2.20;68.90
72338;DHT22;60294;64.134;-21.862;2022-10-16T03:27:02;2.20;68.50
72338;DHT22;60294;64.134;-21.862;2022-10-16T03:29:28;2.20;69.90
72338;DHT22;60294;64.134;-21.862;2022-10-16T03:31:55;2.10;69.80
72338;DHT22;60294;64.134;-21.862;2022-10-16T03:34:21;2.20;69.70
72338;DHT22;60294;64.134;-21.862;2022-10-16T03:39:13;2.30;69.50
72338;DHT22;60294;64.134;-21.862;2022-10-16T03:41:39;2.20;68.70
72338;DHT22;60294;64.134;-21.862;2022-10-16T03:44:05;2.30;70.10
72338;DHT22;60294;64.134;-21.862;2022-10-16T03:46:31;2.20;68.40
72338;DHT22;60294;64.134;-21.862;2022-10-16T03:48:57;2.20;68.20
72338;DHT22;60294;64.134;-21.862;2022-10-16T03:51:22;2.20;67.10
72338;DHT22;60294;64.134;-21.862;2022-10-16T03:53:48;2.30;68.30
72338;DHT22;60294;64.134;-21.862;2022-10-16T03:56:14;2.30;67.20
72338;DHT22;60294;64.134;-21.862;2022-10-16T04:01:07;2.30;67.20
72338;DHT22;60294;64.134;-21.862;2022-10-16T04:03:33;2.30;68.70
72338;DHT22;60294;64.134;-21.862;2022-10-16T04:08:25;2.20;67.70
72338;DHT22;60294;64.134;-21.862;2022-10-16T04:10:50;2.20;68.80
72338;DHT22;60294;64.134;-21.862;2022-10-16T04:13:16;2.20;68.00
72338;DHT22;60294;64.134;-21.862;2022-10-16T04:18:09;2.10;67.40
72338;DHT22;60294;64.134;-21.862;2022-10-16T04:20:34;2.20;67.30
72338;DHT22;60294;64.134;-21.862;2022-10-16T04:23:00;2.20;67.70
72338;DHT22;60294;64.134;-21.862;2022-10-16T04:25:26;2.30;66.80
72338;DHT22;60294;64.134;-21.862;2022-10-16T04:27:55;2.10;68.30
72338;DHT22;60294;64.134;-21.862;2022-10-16T04:30:22;2.10;68.10
72338;DHT22;60294;64.134;-21.862;2022-10-16T04:32:49;2.20;69.00
72338;DHT22;60294;64.134;-21.862;2022-10-16T04:35:16;2.30;68.90
72338;DHT22;60294;64.134;-21.862;2022-10-16T04:37:42;2.30;66.10
72338;DHT22;60294;64.134;-21.862;2022-10-16T04:40:09;2.30;66.70
72338;DHT22;60294;64.134;-21.862;2022-10-16T04:42:35;2.20;66.60
72338;DHT22;60294;64.134;-21.862;2022-10-16T04:45:01;2.20;67.90
72338;DHT22;60294;64.134;-21.862;2022-10-16T04:47:26;2.10;66.50
72338;DHT22;60294;64.134;-21.862;2022-10-16T04:49:52;2.10;68.20
72338;DHT22;60294;64.134;-21.862;2022-10-16T04:52:18;2.10;67.90
72338;DHT22;60294;64.134;-21.862;2022-10-16T04:54:44;2.20;67.10
72338;DHT22;60294;64.134;-21.862;2022-10-16T04:57:11;2.20;67.10
72338;DHT22;60294;64.134;-21.862;2022-10-16T04:59:36;2.10;67.70
72338;DHT22;60294;64.134;-21.862;2022-10-16T05:02:02;2.20;67.90
72338;DHT22;60294;64.134;-21.862;2022-10-16T05:04:28;2.10;67.20
72338;DHT22;60294;64.134;-21.862;2022-10-16T05:06:54;2.30;66.40
72338;DHT22;60294;64.134;-21.862;2022-10-16T05:09:20;2.30;67.40
72338;DHT22;60294;64.134;-21.862;2022-10-16T05:11:46;2.30;68.60
72338;DHT22;60294;64.134;-21.862;2022-10-16T05:14:12;2.30;67.80
72338;DHT22;60294;64.134;-21.862;2022-10-16T05:16:37;2.30;68.70
72338;DHT22;60294;64.134;-21.862;2022-10-16T05:19:04;2.40;68.20
72338;DHT22;60294;64.134;-21.862;2022-10-16T05:21:30;2.40;69.50
72338;DHT22;60294;64.134;-21.862;2022-10-16T05:23:55;2.50;69.60
72338;DHT22;60294;64.134;-21.862;2022-10-16T05:26:21;2.40;68.00
72338;DHT22;60294;64.134;-21.862;2022-10-16T05:28:47;2.50;68.30
72338;DHT22;60294;64.134;-21.862;2022-10-16T05:31:13;2.50;67.00
72338;DHT22;60294;64.134;-21.862;2022-10-16T05:33:39;2.70;68.20
72338;DHT22;60294;64.134;-21.862;2022-10-16T05:36:06;2.60;67.40
72338;DHT22;60294;64.134;-21.862;2022-10-16T05:38:33;2.70;66.90
72338;DHT22;60294;64.134;-21.862;2022-10-16T05:40:59;2.90;62.40
72338;DHT22;60294;64.134;-21.862;2022-10-16T05:43:27;2.80;64.30
72338;DHT22;60294;64.134;-21.862;2022-10-16T05:46:04;3.00;63.70
72338;DHT22;60294;64.134;-21.862;2022-10-16T05:48:31;2.80;63.10
72338;DHT22;60294;64.134;-21.862;2022-10-16T05:51:07;2.70;65.80
72338;DHT22;60294;64.134;-21.862;2022-10-16T05:53:36;2.60;66.10
72338;DHT22;60294;64.134;-21.862;2022-10-16T05:56:03;2.60;65.60
72338;DHT22;60294;64.134;-21.862;2022-10-16T05:58:34;2.60;67.30
72338;DHT22;60294;64.134;-21.862;2022-10-16T06:01:06;2.90;63.00
72338;DHT22;60294;64.134;-21.862;2022-10-16T06:03:35;3.10;61.90
72338;DHT22;60294;64.134;-21.862;2022-10-16T06:06:09;2.80;63.80
72338;DHT22;60294;64.134;-21.862;2022-10-16T06:08:36;2.80;63.30
72338;DHT22;60294;64.134;-21.862;2022-10-16T06:11:07;2.80;64.00
72338;DHT22;60294;64.134;-21.862;2022-10-16T06:13:33;2.60;64.50
72338;DHT22;60294;64.134;-21.862;2022-10-16T06:15:59;2.50;65.00
72338;DHT22;60294;64.134;-21.862;2022-10-16T06:18:26;2.50;65.90
72338;DHT22;60294;64.134;-21.862;2022-10-16T06:20:53;2.50;67.30
72338;DHT22;60294;64.134;-21.862;2022-10-16T06:23:19;2.60;63.60
72338;DHT22;60294;64.134;-21.862;2022-10-16T06:25:44;2.60;63.60
72338;DHT22;60294;64.134;-21.862;2022-10-16T06:28:10;2.60;63.70
72338;DHT22;60294;64.134;-21.862;2022-10-16T06:30:36;2.80;61.00
72338;DHT22;60294;64.134;-21.862;2022-10-16T06:33:02;2.80;61.10
72338;DHT22;60294;64.134;-21.862;2022-10-16T06:35:28;2.70;63.40
72338;DHT22;60294;64.134;-21.862;2022-10-16T06:37:55;2.60;64.00
72338;DHT22;60294;64.134;-21.862;2022-10-16T06:40:20;2.60;64.30
72338;DHT22;60294;64.134;-21.862;2022-10-16T06:42:46;2.60;64.00
72338;DHT22;60294;64.134;-21.862;2022-10-16T06:45:12;2.60;64.70
72338;DHT22;60294;64.134;-21.862;2022-10-16T06:47:38;2.60;63.80
72338;DHT22;60294;64.134;-21.862;2022-10-16T06:50:04;2.60;64.60
72338;DHT22;60294;64.134;-21.862;2022-10-16T06:52:32;2.60;64.50
72338;DHT22;60294;64.134;-21.862;2022-10-16T06:54:59;2.60;64.70
72338;DHT22;60294;64.134;-21.862;2022-10-16T06:57:25;2.60;64.10
72338;DHT22;60294;64.134;-21.862;2022-10-16T06:59:51;2.60;65.00
72338;DHT22;60294;64.134;-21.862;2022-10-16T07:02:16;2.70;63.00
72338;DHT22;60294;64.134;-21.862;2022-10-16T07:04:42;2.80;62.90
72338;DHT22;60294;64.134;-21.862;2022-10-16T07:07:08;2.80;63.10
72338;DHT22;60294;64.134;-21.862;2022-10-16T07:09:34;2.90;61.00
72338;DHT22;60294;64.134;-21.862;2022-10-16T07:11:59;2.90;62.30
72338;DHT22;60294;64.134;-21.862;2022-10-16T07:14:25;2.70;62.60
72338;DHT22;60294;64.134;-21.862;2022-10-16T07:16:51;2.70;63.40
72338;DHT22;60294;64.134;-21.862;2022-10-16T07:19:17;2.70;64.00
72338;DHT22;60294;64.134;-21.862;2022-10-16T07:21:43;2.70;64.60
72338;DHT22;60294;64.134;-21.862;2022-10-16T07:24:14;2.80;63.70
72338;DHT22;60294;64.134;-21.862;2022-10-16T07:26:42;2.70;64.10
72338;DHT22;60294;64.134;-21.862;2022-10-16T07:29:21;2.70;64.50
72338;DHT22;60294;64.134;-21.862;2022-10-16T07:31:48;2.80;64.10
72338;DHT22;60294;64.134;-21.862;2022-10-16T07:34:16;2.70;65.30
72338;DHT22;60294;64.134;-21.862;2022-10-16T07:36:42;2.70;65.40
72338;DHT22;60294;64.134;-21.862;2022-10-16T07:39:08;2.80;64.90
72338;DHT22;60294;64.134;-21.862;2022-10-16T07:41:34;2.90;62.60
72338;DHT22;60294;64.134;-21.862;2022-10-16T07:44:02;2.90;63.10
72338;DHT22;60294;64.134;-21.862;2022-10-16T07:46:29;2.70;64.60
72338;DHT22;60294;64.134;-21.862;2022-10-16T07:48:55;2.70;65.70
72338;DHT22;60294;64.134;-21.862;2022-10-16T07:51:23;2.70;64.00
72338;DHT22;60294;64.134;-21.862;2022-10-16T07:53:50;2.70;64.20
72338;DHT22;60294;64.134;-21.862;2022-10-16T07:56:17;2.80;64.40
72338;DHT22;60294;64.134;-21.862;2022-10-16T07:58:44;2.80;65.30
72338;DHT22;60294;64.134;-21.862;2022-10-16T08:01:12;2.80;65.30
72338;DHT22;60294;64.134;-21.862;2022-10-16T08:03:42;2.80;64.20
72338;DHT22;60294;64.134;-21.862;2022-10-16T08:06:07;2.80;64.80
72338;DHT22;60294;64.134;-21.862;2022-10-16T08:08:34;2.90;64.80
72338;DHT22;60294;64.134;-21.862;2022-10-16T08:11:00;2.80;64.60
72338;DHT22;60294;64.134;-21.862;2022-10-16T08:13:29;2.90;66.10
72338;DHT22;60294;64.134;-21.862;2022-10-16T08:15:55;2.90;64.90
72338;DHT22;60294;64.134;-21.862;2022-10-16T08:18:21;2.80;64.70
72338;DHT22;60294;64.134;-21.862;2022-10-16T08:20:47;2.80;64.60
72338;DHT22;60294;64.134;-21.862;2022-10-16T08:23:13;2.80;64.90
72338;DHT22;60294;64.134;-21.862;2022-10-16T08:25:39;2.80;63.30
72338;DHT22;60294;64.134;-21.862;2022-10-16T08:28:06;2.90;63.90
72338;DHT22;60294;64.134;-21.862;2022-10-16T08:30:33;2.90;63.60
72338;DHT22;60294;64.134;-21.862;2022-10-16T08:32:59;2.90;64.10
72338;DHT22;60294;64.134;-21.862;2022-10-16T08:35:25;2.90;62.70
72338;DHT22;60294;64.134;-21.862;2022-10-16T08:37:51;3.00;62.30
72338;DHT22;60294;64.134;-21.862;2022-10-16T08:45:49;3.00;63.10
72338;DHT22;60294;64.134;-21.862;2022-10-16T08:49:01;3.10;62.50
72338;DHT22;60294;64.134;-21.862;2022-10-16T08:51:21;3.10;62.20
72338;DHT22;60294;64.134;-21.862;2022-10-16T08:54:03;3.10;63.80
72338;DHT22;60294;64.134;-21.862;2022-10-16T08:56:29;3.10;63.10
72338;DHT22;60294;64.134;-21.862;2022-10-16T08:58:58;3.00;63.20
72338;DHT22;60294;64.134;-21.862;2022-10-16T09:01:33;3.00;64.10
72338;DHT22;60294;64.134;-21.862;2022-10-16T09:07:53;3.10;61.20
72338;DHT22;60294;64.134;-21.862;2022-10-16T09:18:37;3.10;63.10
72338;DHT22;60294;64.134;-21.862;2022-10-16T09:21:22;3.20;64.00
72338;DHT22;60294;64.134;-21.862;2022-10-16T09:23:49;3.20;63.50
72338;DHT22;60294;64.134;-21.862;2022-10-16T09:26:16;3.20;63.40
72338;DHT22;60294;64.134;-21.862;2022-10-16T09:28:43;3.20;63.90
72338;DHT22;60294;64.134;-21.862;2022-10-16T09:31:16;3.20;62.70
72338;DHT22;60294;64.134;-21.862;2022-10-16T09:33:44;3.30;63.30
72338;DHT22;60294;64.134;-21.862;2022-10-16T09:36:12;3.30;63.30
72338;DHT22;60294;64.134;-21.862;2022-10-16T09:38:38;3.30;63.30
72338;DHT22;60294;64.134;-21.862;2022-10-16T09:41:24;3.30;63.00
72338;DHT22;60294;64.134;-21.862;2022-10-16T09:43:57;3.20;63.50
72338;DHT22;60294;64.134;-21.862;2022-10-16T09:46:33;3.30;63.00
72338;DHT22;60294;64.134;-21.862;2022-10-16T09:49:05;3.30;63.50
72338;DHT22;60294;64.134;-21.862;2022-10-16T09:51:35;3.30;63.60
72338;DHT22;60294;64.134;-21.862;2022-10-16T09:56:34;3.40;64.20
72338;DHT22;60294;64.134;-21.862;2022-10-16T09:59:13;3.40;64.40
72338;DHT22;60294;64.134;-21.862;2022-10-16T10:01:54;3.60;61.90
72338;DHT22;60294;64.134;-21.862;2022-10-16T10:04:23;3.60;61.30
72338;DHT22;60294;64.134;-21.862;2022-10-16T10:06:54;3.80;61.30
72338;DHT22;60294;64.134;-21.862;2022-10-16T10:09:22;3.70;60.40
72338;DHT22;60294;64.134;-21.862;2022-10-16T10:14:23;3.70;61.10
72338;DHT22;60294;64.134;-21.862;2022-10-16T10:16:50;3.50;62.50
72338;DHT22;60294;64.134;-21.862;2022-10-16T10:19:21;3.40;63.20
72338;DHT22;60294;64.134;-21.862;2022-10-16T10:21:49;3.30;64.80
72338;DHT22;60294;64.134;-21.862;2022-10-16T10:24:17;3.40;65.00
72338;DHT22;60294;64.134;-21.862;2022-10-16T10:27:07;3.50;65.30
72338;DHT22;60294;64.134;-21.862;2022-10-16T10:32:28;3.60;63.60
72338;DHT22;60294;64.134;-21.862;2022-10-16T10:35:12;3.70;63.90
72338;DHT22;60294;64.134;-21.862;2022-10-16T10:40:48;3.60;63.50
72338;DHT22;60294;64.134;-21.862;2022-10-16T10:43:37;3.60;63.20
72338;DHT22;60294;64.134;-21.862;2022-10-16T10:46:17;3.50;63.00
72338;DHT22;60294;64.134;-21.862;2022-10-16T10:54:33;3.30;66.40
72338;DHT22;60294;64.134;-21.862;2022-10-16T11:02:14;3.40;65.10
72338;DHT22;60294;64.134;-21.862;2022-10-16T11:05:05;3.60;64.70
72338;DHT22;60294;64.134;-21.862;2022-10-16T11:08:40;4.00;63.10
72338;DHT22;60294;64.134;-21.862;2022-10-16T11:10:50;4.20;61.60
72338;DHT22;60294;64.134;-21.862;2022-10-16T11:15:58;4.10;61.80
72338;DHT22;60294;64.134;-21.862;2022-10-16T11:18:33;4.30;60.20
72338;DHT22;60294;64.134;-21.862;2022-10-16T11:21:07;4.30;60.30
72338;DHT22;60294;64.134;-21.862;2022-10-16T11:23:59;4.20;60.80
72338;DHT22;60294;64.134;-21.862;2022-10-16T11:26:34;4.10;60.80
72338;DHT22;60294;64.134;-21.862;2022-10-16T11:29:02;4.30;61.50
72338;DHT22;60294;64.134;-21.862;2022-10-16T11:31:40;4.90;57.20
72338;DHT22;60294;64.134;-21.862;2022-10-16T11:37:20;5.50;55.40
72338;DHT22;60294;64.134;-21.862;2022-10-16T11:39:50;6.00;54.30
72338;DHT22;60294;64.134;-21.862;2022-10-16T11:42:40;6.30;53.30
72338;DHT22;60294;64.134;-21.862;2022-10-16T11:45:39;6.50;54.40
72338;DHT22;60294;64.134;-21.862;2022-10-16T11:48:18;6.70;53.10
72338;DHT22;60294;64.134;-21.862;2022-10-16T11:50:50;7.00;52.20
72338;DHT22;60294;64.134;-21.862;2022-10-16T11:53:39;6.80;50.80
72338;DHT22;60294;64.134;-21.862;2022-10-16T11:56:07;6.00;56.50
72338;DHT22;60294;64.134;-21.862;2022-10-16T11:59:00;5.40;56.90
72338;DHT22;60294;64.134;-21.862;2022-10-16T12:01:46;5.50;56.20
72338;DHT22;60294;64.134;-21.862;2022-10-16T12:09:32;5.50;57.30
72338;DHT22;60294;64.134;-21.862;2022-10-16T12:11:59;5.40;55.30
72338;DHT22;60294;64.134;-21.862;2022-10-16T12:14:37;5.10;56.50
72338;DHT22;60294;64.134;-21.862;2022-10-16T12:17:26;4.40;61.10
72338;DHT22;60294;64.134;-21.862;2022-10-16T12:20:01;4.40;60.70
72338;DHT22;60294;64.134;-21.862;2022-10-16T12:22:29;4.70;60.70
72338;DHT22;60294;64.134;-21.862;2022-10-16T12:24:57;4.30;60.90
72338;DHT22;60294;64.134;-21.862;2022-10-16T12:30:04;4.70;59.10
72338;DHT22;60294;64.134;-21.862;2022-10-16T12:32:35;4.60;58.90
72338;DHT22;60294;64.134;-21.862;2022-10-16T12:35:03;4.70;58.10
72338;DHT22;60294;64.134;-21.862;2022-10-16T12:37:38;4.80;56.90
72338;DHT22;60294;64.134;-21.862;2022-10-16T12:40:28;4.60;58.20
72338;DHT22;60294;64.134;-21.862;2022-10-16T12:42:55;4.50;61.70
72338;DHT22;60294;64.134;-21.862;2022-10-16T12:45:32;4.20;61.80
72338;DHT22;60294;64.134;-21.862;2022-10-16T12:48:00;4.50;60.90
72338;DHT22;60294;64.134;-21.862;2022-10-16T12:50:28;4.70;58.00
72338;DHT22;60294;64.134;-21.862;2022-10-16T12:52:57;5.00;57.30
72338;DHT22;60294;64.134;-21.862;2022-10-16T12:55:23;5.00;57.50
72338;DHT22;60294;64.134;-21.862;2022-10-16T13:20:27;5.60;56.70
72338;DHT22;60294;64.134;-21.862;2022-10-16T13:28:10;5.20;59.20
72338;DHT22;60294;64.134;-21.862;2022-10-16T13:30:53;5.00;58.10
72338;DHT22;60294;64.134;-21.862;2022-10-16T13:33:36;4.90;58.70
72338;DHT22;60294;64.134;-21.862;2022-10-16T13:36:04;4.60;60.90
72338;DHT22;60294;64.134;-21.862;2022-10-16T13:38:35;4.60;62.50
72338;DHT22;60294;64.134;-21.862;2022-10-16T13:41:04;4.40;62.00
72338;DHT22;60294;64.134;-21.862;2022-10-16T13:46:14;4.30;62.30
72338;DHT22;60294;64.134;-21.862;2022-10-16T13:48:40;4.30;63.30
72338;DHT22;60294;64.134;-21.862;2022-10-16T13:51:15;4.30;63.20
72338;DHT22;60294;64.134;-21.862;2022-10-16T13:53:42;4.40;62.80
72338;DHT22;60294;64.134;-21.862;2022-10-16T13:56:18;4.60;59.80
72338;DHT22;60294;64.134;-21.862;2022-10-16T13:58:44;4.70;60.50
72338;DHT22;60294;64.134;-21.862;2022-10-16T14:01:26;4.60;61.60
72338;DHT22;60294;64.134;-21.862;2022-10-16T14:03:53;4.90;61.10
72338;DHT22;60294;64.134;-21.862;2022-10-16T14:06:20;5.10;60.70
72338;DHT22;60294;64.134;-21.862;2022-10-16T14:09:04;5.10;60.50
72338;DHT22;60294;64.134;-21.862;2022-10-16T14:11:32;4.90;61.20
72338;DHT22;60294;64.134;-21.862;2022-10-16T14:13:58;4.90;61.20
72338;DHT22;60294;64.134;-21.862;2022-10-16T14:16:30;5.00;60.90
72338;DHT22;60294;64.134;-21.862;2022-10-16T14:19:04;5.20;61.00
72338;DHT22;60294;64.134;-21.862;2022-10-16T14:21:36;5.10;61.20
72338;DHT22;60294;64.134;-21.862;2022-10-16T14:24:13;5.60;57.90
72338;DHT22;60294;64.134;-21.862;2022-10-16T14:26:44;5.80;56.10
72338;DHT22;60294;64.134;-21.862;2022-10-16T14:29:13;6.20;54.50
72338;DHT22;60294;64.134;-21.862;2022-10-16T14:31:39;5.80;55.30
72338;DHT22;60294;64.134;-21.862;2022-10-16T14:34:24;5.30;58.00
72338;DHT22;60294;64.134;-21.862;2022-10-16T14:36:50;5.10;59.50
72338;DHT22;60294;64.134;-21.862;2022-10-16T14:39:21;5.10;58.70
72338;DHT22;60294;64.134;-21.862;2022-10-16T14:41:50;4.90;60.00
72338;DHT22;60294;64.134;-21.862;2022-10-16T14:44:18;4.90;61.00
72338;DHT22;60294;64.134;-21.862;2022-10-16T14:46:44;4.80;61.90
72338;DHT22;60294;64.134;-21.862;2022-10-16T14:51:41;4.70;63.20
72338;DHT22;60294;64.134;-21.862;2022-10-16T14:54:15;4.90;62.80
72338;DHT22;60294;64.134;-21.862;2022-10-16T14:56:55;5.00;61.90
72338;DHT22;60294;64.134;-21.862;2022-10-16T14:59:40;5.10;61.60
72338;DHT22;60294;64.134;-21.862;2022-10-16T15:02:33;5.20;61.00
72338;DHT22;60294;64.134;-21.862;2022-10-16T15:05:21;4.90;61.70
72338;DHT22;60294;64.134;-21.862;2022-10-16T15:07:48;4.80;62.20
72338;DHT22;60294;64.134;-21.862;2022-10-16T15:10:18;4.70;62.80
72338;DHT22;60294;64.134;-21.862;2022-10-16T15:12:44;4.70;61.80
72338;DHT22;60294;64.134;-21.862;2022-10-16T15:15:37;4.70;62.30
72338;DHT22;60294;64.134;-21.862;2022-10-16T15:18:04;4.70;62.00
72338;DHT22;60294;64.134;-21.862;2022-10-16T15:20:33;4.60;63.40
72338;DHT22;60294;64.134;-21.862;2022-10-16T15:23:20;4.60;63.90
72338;DHT22;60294;64.134;-21.862;2022-10-16T15:25:51;4.50;64.60
72338;DHT22;60294;64.134;-21.862;2022-10-16T15:28:18;4.50;64.40
72338;DHT22;60294;64.134;-21.862;2022-10-16T15:30:45;4.60;63.70
72338;DHT22;60294;64.134;-21.862;2022-10-16T15:33:16;4.50;64.10
72338;DHT22;60294;64.134;-21.862;2022-10-16T15:35:46;4.70;63.10
72338;DHT22;60294;64.134;-21.862;2022-10-16T15:38:13;4.70;62.10
72338;DHT22;60294;64.134;-21.862;2022-10-16T15:40:39;4.80;63.10
72338;DHT22;60294;64.134;-21.862;2022-10-16T15:43:05;4.80;63.20
72338;DHT22;60294;64.134;-21.862;2022-10-16T15:45:31;4.90;63.90
72338;DHT22;60294;64.134;-21.862;2022-10-16T15:47:57;5.10;63.30
72338;DHT22;60294;64.134;-21.862;2022-10-16T15:50:23;5.10;63.90
72338;DHT22;60294;64.134;-21.862;2022-10-16T15:52:50;5.40;63.90
72338;DHT22;60294;64.134;-21.862;2022-10-16T15:55:16;5.70;62.20
72338;DHT22;60294;64.134;-21.862;2022-10-16T15:57:43;5.40;60.80
72338;DHT22;60294;64.134;-21.862;2022-10-16T16:00:11;6.20;60.30
72338;DHT22;60294;64.134;-21.862;2022-10-16T16:02:38;6.90;58.50
72338;DHT22;60294;64.134;-21.862;2022-10-16T16:05:05;7.00;58.60
72338;DHT22;60294;64.134;-21.862;2022-10-16T16:07:34;7.80;56.30
72338;DHT22;60294;64.134;-21.862;2022-10-16T16:10:00;8.10;54.40
72338;DHT22;60294;64.134;-21.862;2022-10-16T16:12:26;7.10;56.00
72338;DHT22;60294;64.134;-21.862;2022-10-16T16:14:53;6.60;58.70
72338;DHT22;60294;64.134;-21.862;2022-10-16T16:17:18;6.40;58.30
72338;DHT22;60294;64.134;-21.862;2022-10-16T16:19:45;5.60;61.20
72338;DHT22;60294;64.134;-21.862;2022-10-16T16:22:12;5.30;60.90
72338;DHT22;60294;64.134;-21.862;2022-10-16T16:24:38;5.30;61.90
72338;DHT22;60294;64.134;-21.862;2022-10-16T16:27:03;5.40;61.60
72338;DHT22;60294;64.134;-21.862;2022-10-16T16:29:29;5.20;62.00
72338;DHT22;60294;64.134;-21.862;2022-10-16T16:31:55;5.00;63.80
72338;DHT22;60294;64.134;-21.862;2022-10-16T16:34:26;5.00;63.80
72338;DHT22;60294;64.134;-21.862;2022-10-16T16:36:53;5.10;63.80
72338;DHT22;60294;64.134;-21.862;2022-10-16T16:39:19;5.30;62.70
72338;DHT22;60294;64.134;-21.862;2022-10-16T16:41:45;5.40;62.70
72338;DHT22;60294;64.134;-21.862;2022-10-16T16:44:12;5.60;62.00
72338;DHT22;60294;64.134;-21.862;2022-10-16T16:46:38;5.40;62.10
72338;DHT22;60294;64.134;-21.862;2022-10-16T16:49:05;5.40;63.00
72338;DHT22;60294;64.134;-21.862;2022-10-16T16:51:32;5.30;63.70
72338;DHT22;60294;64.134;-21.862;2022-10-16T16:54:00;5.10;63.20
72338;DHT22;60294;64.134;-21.862;2022-10-16T16:56:26;4.80;65.00
72338;DHT22;60294;64.134;-21.862;2022-10-16T16:58:54;4.60;67.30
72338;DHT22;60294;64.134;-21.862;2022-10-16T17:01:21;4.40;66.80
72338;DHT22;60294;64.134;-21.862;2022-10-16T17:03:48;4.30;67.20
72338;DHT22;60294;64.134;-21.862;2022-10-16T17:06:15;4.40;67.10
72338;DHT22;60294;64.134;-21.862;2022-10-16T17:08:41;4.30;67.30
72338;DHT22;60294;64.134;-21.862;2022-10-16T17:11:21;4.40;68.40
72338;DHT22;60294;64.134;-21.862;2022-10-16T17:13:49;4.30;68.90
72338;DHT22;60294;64.134;-21.862;2022-10-16T17:16:16;4.40;67.80
72338;DHT22;60294;64.134;-21.862;2022-10-16T17:18:42;4.50;68.40
72338;DHT22;60294;64.134;-21.862;2022-10-16T17:21:09;4.40;68.90
72338;DHT22;60294;64.134;-21.862;2022-10-16T17:23:36;4.40;69.50
72338;DHT22;60294;64.134;-21.862;2022-10-16T17:26:10;5.10;67.70
72338;DHT22;60294;64.134;-21.862;2022-10-16T17:28:37;5.20;65.90
72338;DHT22;60294;64.134;-21.862;2022-10-16T17:31:11;5.00;65.90
72338;DHT22;60294;64.134;-21.862;2022-10-16T17:33:38;4.90;66.60
72338;DHT22;60294;64.134;-21.862;2022-10-16T17:36:04;5.10;65.70
72338;DHT22;60294;64.134;-21.862;2022-10-16T17:38:30;5.30;65.40
72338;DHT22;60294;64.134;-21.862;2022-10-16T17:40:56;5.30;66.00
72338;DHT22;60294;64.134;-21.862;2022-10-16T17:43:22;5.40;66.20
72338;DHT22;60294;64.134;-21.862;2022-10-16T17:45:48;5.40;65.10
72338;DHT22;60294;64.134;-21.862;2022-10-16T17:48:13;4.80;67.10
72338;DHT22;60294;64.134;-21.862;2022-10-16T17:50:40;4.60;67.10
72338;DHT22;60294;64.134;-21.862;2022-10-16T17:53:06;4.50;68.20
72338;DHT22;60294;64.134;-21.862;2022-10-16T17:55:38;4.60;68.30
72338;DHT22;60294;64.134;-21.862;2022-10-16T17:58:03;4.50;68.30
72338;DHT22;60294;64.134;-21.862;2022-10-16T18:00:29;4.50;68.20
72338;DHT22;60294;64.134;-21.862;2022-10-16T18:02:55;4.50;68.30
72338;DHT22;60294;64.134;-21.862;2022-10-16T18:05:21;4.50;68.40
72338;DHT22;60294;64.134;-21.862;2022-10-16T18:07:47;4.50;69.10
72338;DHT22;60294;64.134;-21.862;2022-10-16T18:10:13;4.40;69.30
72338;DHT22;60294;64.134;-21.862;2022-10-16T18:12:38;4.40;67.80
72338;DHT22;60294;64.134;-21.862;2022-10-16T18:15:05;4.50;65.70
72338;DHT22;60294;64.134;-21.862;2022-10-16T18:17:34;4.50;65.40
72338;DHT22;60294;64.134;-21.862;2022-10-16T18:20:03;4.50;65.30
72338;DHT22;60294;64.134;-21.862;2022-10-16T18:22:29;4.40;65.60
72338;DHT22;60294;64.134;-21.862;2022-10-16T18:24:55;4.40;66.40
72338;DHT22;60294;64.134;-21.862;2022-10-16T18:27:23;4.30;66.80
72338;DHT22;60294;64.134;-21.862;2022-10-16T18:29:48;4.20;66.80
72338;DHT22;60294;64.134;-21.862;2022-10-16T18:32:14;4.20;67.20
72338;DHT22;60294;64.134;-21.862;2022-10-16T18:34:40;4.10;67.30
72338;DHT22;60294;64.134;-21.862;2022-10-16T18:37:06;4.10;67.70
72338;DHT22;60294;64.134;-21.862;2022-10-16T18:39:32;4.10;68.10
72338;DHT22;60294;64.134;-21.862;2022-10-16T18:41:57;4.00;69.20
72338;DHT22;60294;64.134;-21.862;2022-10-16T18:44:25;4.00;69.50
72338;DHT22;60294;64.134;-21.862;2022-10-16T18:46:51;4.00;70.00
72338;DHT22;60294;64.134;-21.862;2022-10-16T18:49:22;4.00;69.40
72338;DHT22;60294;64.134;-21.862;2022-10-16T18:51:48;4.00;68.90
72338;DHT22;60294;64.134;-21.862;2022-10-16T18:54:17;4.00;68.90
72338;DHT22;60294;64.134;-21.862;2022-10-16T18:56:43;4.00;68.90